Time,TemperatureF,DewpointF,PressureIn,WindDirection,WindDirectionDegrees,WindSpeedMPH,WindSpeedGustMPH,Humidity,HourlyPrecipIn,Conditions,Clouds,dailyrainin,SoftwareType,DateUTC
2013-01-28 00:01:00,45.5,42.4,29.73,South,179,0.0,0.0,89,0.00,,,0.00,Wunderground v.1.15,2013-01-28 07:01:00,
2013-01-28 00:07:00,45.6,42.3,29.72,South,179,0.0,0.0,88,0.00,,,0.00,Wunderground v.1.15,2013-01-28 07:07:00,
2013-01-28 00:12:00,45.7,42.3,29.72,South,180,0.0,0.0,88,0.00,,,0.00,Wunderground v.1.15,2013-01-28 07:12:00,
2013-01-28 00:18:00,45.6,42.0,29.72,South,179,0.0,0.0,87,0.00,,,0.00,Wunderground v.1.15,2013-01-28 07:18:00,
2013-01-28 00:24:00,45.7,41.8,29.72,South,180,0.0,0.0,86,0.00,,,0.00,Wunderground v.1.15,2013-01-28 07:24:00,
2013-01-28 00:30:00,45.6,41.7,29.72,South,179,0.0,0.0,86,0.00,,,0.00,Wunderground v.1.15,2013-01-28 07:30:00,
2013-01-28 00:35:00,45.5,41.6,29.72,South,179,0.0,0.0,86,0.00,,,0.00,Wunderground v.1.15,2013-01-28 07:35:00,
2013-01-28 00:41:00,45.5,41.6,29.73,South,179,0.0,1.0,86,0.00,,,0.00,Wunderground v.1.15,2013-01-28 07:41:00,
2013-01-28 00:47:00,45.6,41.7,29.72,South,179,0.0,0.0,86,0.00,,,0.00,Wunderground v.1.15,2013-01-28 07:47:00,
2013-01-28 00:53:00,45.6,42.0,29.72,South,179,0.0,2.0,87,0.00,,,0.00,Wunderground v.1.15,2013-01-28 07:53:00,
2013-01-28 00:59:00,45.7,42.1,29.71,South,179,1.0,1.0,87,0.00,,,0.00,Wunderground v.1.15,2013-01-28 07:59:00,
2013-01-28 01:05:00,45.7,42.1,29.70,South,179,0.0,1.0,87,0.00,,,0.00,Wunderground v.1.15,2013-01-28 08:05:00,
2013-01-28 01:11:00,45.5,41.9,29.70,South,181,0.0,1.0,87,0.00,,,0.00,Wunderground v.1.15,2013-01-28 08:11:00,
2013-01-28 01:16:00,45.3,42.0,29.71,South,179,1.0,1.0,88,0.00,,,0.00,Wunderground v.1.15,2013-01-28 08:16:00,
2013-01-28 01:22:00,45.3,42.0,29.71,South,179,0.0,1.0,88,0.00,,,0.00,Wunderground v.1.15,2013-01-28 08:22:00,
2013-01-28 01:28:00,45.4,42.1,29.71,South,179,0.0,1.0,88,0.00,,,0.00,Wunderground v.1.15,2013-01-28 08:28:00,
2013-01-28 01:34:00,45.3,42.0,29.71,South,179,0.0,1.0,88,0.00,,,0.00,Wunderground v.1.15,2013-01-28 08:34:00,
2013-01-28 01:40:00,45.3,42.2,29.70,South,179,1.0,1.0,89,0.00,,,0.00,Wunderground v.1.15,2013-01-28 08:40:00,
2013-01-28 01:46:00,45.2,41.9,29.70,South,179,2.0,2.0,88,0.00,,,0.00,Wunderground v.1.15,2013-01-28 08:46:00,
2013-01-28 01:52:00,45.3,42.2,29.71,South,179,0.0,2.0,89,0.00,,,0.00,Wunderground v.1.15,2013-01-28 08:52:00,
2013-01-28 01:57:00,45.3,42.2,29.71,South,179,0.0,0.0,89,0.00,,,0.00,Wunderground v.1.15,2013-01-28 08:57:00,
2013-01-28 02:02:00,45.1,42.3,29.72,South,179,0.0,1.0,90,0.00,,,0.01,Wunderground v.1.15,2013-01-28 09:02:00,
2013-01-28 02:07:00,45.0,42.2,29.71,South,179,2.0,3.0,90,0.00,,,0.01,Wunderground v.1.15,2013-01-28 09:07:00,
2013-01-28 02:13:00,44.7,41.7,29.70,South,179,2.0,3.0,89,0.06,,,0.02,Wunderground v.1.15,2013-01-28 09:13:00,
2013-01-28 02:17:00,44.5,41.2,29.70,South,179,0.0,2.0,88,0.06,,,0.02,Wunderground v.1.15,2013-01-28 09:17:00,
2013-01-28 02:22:00,44.4,41.7,29.70,South,179,5.0,7.0,90,0.04,,,0.02,Wunderground v.1.15,2013-01-28 09:22:00,
2013-01-28 02:28:00,44.7,41.7,29.69,South,179,2.0,2.0,89,0.00,,,0.02,Wunderground v.1.15,2013-01-28 09:28:00,
2013-01-28 02:33:00,45.6,39.5,29.70,South,179,3.0,11.0,79,0.00,,,0.02,Wunderground v.1.15,2013-01-28 09:33:00,
2013-01-28 02:38:00,47.3,40.5,29.71,South,179,4.0,4.0,77,0.00,,,0.02,Wunderground v.1.15,2013-01-28 09:38:00,
2013-01-28 02:43:00,47.2,41.3,29.70,South,179,0.0,7.0,80,0.00,,,0.03,Wunderground v.1.15,2013-01-28 09:43:00,
2013-01-28 02:48:00,46.4,40.9,29.70,South,178,2.0,4.0,81,0.00,,,0.03,Wunderground v.1.15,2013-01-28 09:48:00,
2013-01-28 02:53:00,45.6,40.7,29.70,South,179,2.0,4.0,83,0.00,,,0.03,Wunderground v.1.15,2013-01-28 09:53:00,
2013-01-28 02:58:00,45.3,40.7,29.70,South,179,2.0,3.0,84,0.00,,,0.03,Wunderground v.1.15,2013-01-28 09:58:00,
2013-01-28 03:03:00,44.6,40.7,29.70,South,179,0.0,3.0,86,0.00,,,0.03,Wunderground v.1.15,2013-01-28 10:03:00,
2013-01-28 03:08:00,44.3,39.8,29.70,South,179,1.0,1.0,84,0.00,,,0.03,Wunderground v.1.15,2013-01-28 10:08:00,
2013-01-28 03:13:00,44.8,40.0,29.70,South,179,2.0,2.0,83,0.00,,,0.03,Wunderground v.1.15,2013-01-28 10:13:00,
2013-01-28 03:18:00,45.1,39.0,29.70,South,179,2.0,2.0,79,0.00,,,0.03,Wunderground v.1.15,2013-01-28 10:18:00,
2013-01-28 03:23:00,46.2,38.4,29.70,South,179,0.0,12.0,74,0.00,,,0.03,Wunderground v.1.15,2013-01-28 10:23:00,
2013-01-28 03:28:00,47.0,38.8,29.69,South,179,1.0,4.0,73,0.00,,,0.03,Wunderground v.1.15,2013-01-28 10:28:00,
2013-01-28 03:33:00,46.9,38.7,29.70,South,179,0.0,4.0,73,0.00,,,0.03,Wunderground v.1.15,2013-01-28 10:33:00,
2013-01-28 03:38:00,47.1,37.8,29.70,South,179,5.0,7.0,70,0.00,,,0.03,Wunderground v.1.15,2013-01-28 10:38:00,
2013-01-28 03:43:00,47.5,37.5,29.69,South,179,5.0,8.0,68,0.00,,,0.03,Wunderground v.1.15,2013-01-28 10:43:00,
2013-01-28 03:48:00,47.8,37.7,29.69,South,179,1.0,8.0,68,0.00,,,0.03,Wunderground v.1.15,2013-01-28 10:48:00,
2013-01-28 03:53:00,47.8,37.4,29.69,South,179,3.0,8.0,67,0.00,,,0.03,Wunderground v.1.15,2013-01-28 10:53:00,
2013-01-28 03:58:00,47.8,37.0,29.69,South,179,2.0,7.0,66,0.00,,,0.03,Wunderground v.1.15,2013-01-28 10:58:00,
2013-01-28 04:03:00,47.8,37.7,29.69,South,179,1.0,7.0,68,0.00,,,0.03,Wunderground v.1.15,2013-01-28 11:03:00,
2013-01-28 04:08:00,47.4,37.4,29.68,South,179,1.0,2.0,68,0.00,,,0.03,Wunderground v.1.15,2013-01-28 11:08:00,
2013-01-28 04:13:00,47.2,37.2,29.68,South,179,2.0,8.0,68,0.00,,,0.03,Wunderground v.1.15,2013-01-28 11:13:00,
2013-01-28 04:18:00,47.6,37.2,29.68,South,179,0.0,2.0,67,0.00,,,0.03,Wunderground v.1.15,2013-01-28 11:18:00,
2013-01-28 04:23:00,47.6,37.2,29.68,South,179,2.0,8.0,67,0.00,,,0.03,Wunderground v.1.15,2013-01-28 11:23:00,
2013-01-28 04:28:00,47.4,36.6,29.68,South,179,1.0,3.0,66,0.00,,,0.03,Wunderground v.1.15,2013-01-28 11:28:00,
2013-01-28 04:33:00,47.3,36.5,29.68,South,179,1.0,6.0,66,0.00,,,0.03,Wunderground v.1.15,2013-01-28 11:33:00,
2013-01-28 04:38:00,47.5,34.7,29.67,South,179,2.0,6.0,61,0.00,,,0.03,Wunderground v.1.15,2013-01-28 11:38:00,
2013-01-28 04:43:00,47.9,35.9,29.67,South,179,2.0,6.0,63,0.00,,,0.03,Wunderground v.1.15,2013-01-28 11:43:00,
2013-01-28 04:48:00,47.7,35.7,29.67,South,179,1.0,7.0,63,0.00,,,0.03,Wunderground v.1.15,2013-01-28 11:48:00,
2013-01-28 04:53:00,47.6,36.0,29.67,South,179,2.0,7.0,64,0.00,,,0.03,Wunderground v.1.15,2013-01-28 11:53:00,
2013-01-28 04:58:00,47.4,35.4,29.67,South,179,2.0,2.0,63,0.00,,,0.03,Wunderground v.1.15,2013-01-28 11:58:00,
2013-01-28 05:03:00,47.3,35.7,29.67,South,179,2.0,7.0,64,0.00,,,0.03,Wunderground v.1.15,2013-01-28 12:03:00,
2013-01-28 05:08:00,47.3,36.1,29.67,South,179,2.0,6.0,65,0.00,,,0.03,Wunderground v.1.15,2013-01-28 12:08:00,
2013-01-28 05:13:00,47.2,36.4,29.67,South,179,2.0,6.0,66,0.00,,,0.03,Wunderground v.1.15,2013-01-28 12:13:00,
2013-01-28 05:18:00,47.0,36.2,29.67,South,179,3.0,3.0,66,0.00,,,0.03,Wunderground v.1.15,2013-01-28 12:18:00,
2013-01-28 05:23:00,46.9,35.7,29.67,South,181,2.0,5.0,65,0.00,,,0.03,Wunderground v.1.15,2013-01-28 12:23:00,
2013-01-28 05:28:00,46.7,36.3,29.67,South,179,1.0,2.0,67,0.00,,,0.03,Wunderground v.1.15,2013-01-28 12:28:00,
2013-01-28 05:33:00,46.8,35.6,29.67,South,179,3.0,10.0,65,0.00,,,0.03,Wunderground v.1.15,2013-01-28 12:33:00,
2013-01-28 05:38:00,46.9,35.7,29.67,South,179,6.0,7.0,65,0.00,,,0.03,Wunderground v.1.15,2013-01-28 12:38:00,
2013-01-28 05:43:00,47.0,35.8,29.67,South,179,2.0,7.0,65,0.00,,,0.03,Wunderground v.1.15,2013-01-28 12:43:00,
2013-01-28 05:48:00,46.8,36.4,29.67,South,179,4.0,4.0,67,0.00,,,0.03,Wunderground v.1.15,2013-01-28 12:48:00,
2013-01-28 05:53:00,46.4,36.8,29.66,South,179,2.0,6.0,69,0.00,,,0.03,Wunderground v.1.15,2013-01-28 12:53:00,
2013-01-28 05:58:00,46.0,36.8,29.67,South,179,3.0,6.0,70,0.00,,,0.03,Wunderground v.1.15,2013-01-28 12:58:00,
2013-01-28 06:03:00,46.4,35.7,29.67,South,177,2.0,15.0,66,0.00,,,0.03,Wunderground v.1.15,2013-01-28 13:03:00,
2013-01-28 06:08:00,46.5,35.4,29.67,South,177,9.0,13.0,65,0.00,,,0.03,Wunderground v.1.15,2013-01-28 13:08:00,
2013-01-28 06:13:00,46.5,35.7,29.67,South,177,5.0,14.0,66,0.00,,,0.03,Wunderground v.1.15,2013-01-28 13:13:00,
2013-01-28 06:18:00,46.5,35.4,29.67,South,177,2.0,7.0,65,0.00,,,0.03,Wunderground v.1.15,2013-01-28 13:18:00,
2013-01-28 06:23:00,46.3,34.8,29.67,South,177,7.0,11.0,64,0.00,,,0.03,Wunderground v.1.15,2013-01-28 13:23:00,
2013-01-28 06:28:00,46.1,34.6,29.67,South,177,6.0,10.0,64,0.00,,,0.03,Wunderground v.1.15,2013-01-28 13:28:00,
2013-01-28 06:33:00,45.8,34.3,29.68,South,177,9.0,14.0,64,0.00,,,0.03,Wunderground v.1.15,2013-01-28 13:33:00,
2013-01-28 06:38:00,45.8,34.3,29.68,South,177,3.0,8.0,64,0.00,,,0.03,Wunderground v.1.15,2013-01-28 13:38:00,
2013-01-28 06:43:00,45.7,34.2,29.68,South,177,9.0,13.0,64,0.00,,,0.03,Wunderground v.1.15,2013-01-28 13:43:00,
2013-01-28 06:48:00,45.6,33.7,29.68,South,177,4.0,10.0,63,0.00,,,0.03,Wunderground v.1.15,2013-01-28 13:48:00,
2013-01-28 06:54:00,45.6,33.3,29.68,South,177,2.0,10.0,62,0.00,,,0.03,Wunderground v.1.15,2013-01-28 13:54:00,
2013-01-28 06:59:00,45.4,32.7,29.68,South,177,5.0,10.0,61,0.00,,,0.03,Wunderground v.1.15,2013-01-28 13:59:00,
2013-01-28 07:04:00,45.5,32.0,29.68,South,177,3.0,12.0,59,0.00,,,0.03,Wunderground v.1.15,2013-01-28 14:04:00,
2013-01-28 07:09:00,45.6,32.1,29.69,South,177,7.0,7.0,59,0.00,,,0.03,Wunderground v.1.15,2013-01-28 14:09:00,
2013-01-28 07:14:00,45.3,31.8,29.69,South,177,2.0,9.0,59,0.00,,,0.03,Wunderground v.1.15,2013-01-28 14:14:00,
2013-01-28 07:19:00,45.3,29.6,29.69,South,177,3.0,9.0,54,0.00,,,0.03,Wunderground v.1.15,2013-01-28 14:19:00,
2013-01-28 07:24:00,45.2,29.1,29.69,South,177,5.0,9.0,53,0.00,,,0.03,Wunderground v.1.15,2013-01-28 14:24:00,
2013-01-28 07:29:00,45.2,29.1,29.70,South,177,1.0,6.0,53,0.00,,,0.03,Wunderground v.1.15,2013-01-28 14:29:00,
2013-01-28 07:34:00,44.9,29.7,29.70,South,177,2.0,6.0,55,0.00,,,0.03,Wunderground v.1.15,2013-01-28 14:34:00,
2013-01-28 07:39:00,44.6,28.5,29.70,South,177,2.0,5.0,53,0.00,,,0.03,Wunderground v.1.15,2013-01-28 14:39:00,
2013-01-28 07:44:00,44.5,28.9,29.70,South,177,5.0,5.0,54,0.00,,,0.03,Wunderground v.1.15,2013-01-28 14:44:00,
2013-01-28 07:49:00,44.5,27.5,29.71,South,177,9.0,11.0,51,0.00,,,0.03,Wunderground v.1.15,2013-01-28 14:49:00,
2013-01-28 07:54:00,44.6,26.6,29.70,South,177,6.0,12.0,49,0.00,,,0.03,Wunderground v.1.15,2013-01-28 14:54:00,
2013-01-28 07:59:00,44.4,28.3,29.71,South,177,4.0,7.0,53,0.00,,,0.03,Wunderground v.1.15,2013-01-28 14:59:00,
2013-01-28 08:04:00,44.0,28.9,29.71,South,177,3.0,8.0,55,0.00,,,0.03,Wunderground v.1.15,2013-01-28 15:04:00,
2013-01-28 08:09:00,43.7,29.5,29.71,South,177,6.0,11.0,57,0.00,,,0.03,Wunderground v.1.15,2013-01-28 15:09:00,
2013-01-28 08:14:00,43.3,29.9,29.72,South,177,5.0,11.0,59,0.00,,,0.03,Wunderground v.1.15,2013-01-28 15:14:00,
2013-01-28 08:19:00,43.4,30.4,29.72,South,177,4.0,12.0,60,0.00,,,0.03,Wunderground v.1.15,2013-01-28 15:19:00,
2013-01-28 08:24:00,43.5,29.7,29.72,South,177,5.0,12.0,58,0.00,,,0.03,Wunderground v.1.15,2013-01-28 15:24:00,
2013-01-28 08:29:00,43.5,28.8,29.72,South,177,5.0,12.0,56,0.00,,,0.03,Wunderground v.1.15,2013-01-28 15:29:00,
2013-01-28 08:34:00,43.6,28.9,29.72,South,177,9.0,12.0,56,0.00,,,0.03,Wunderground v.1.15,2013-01-28 15:34:00,
2013-01-28 08:39:00,43.7,29.5,29.72,South,177,4.0,11.0,57,0.00,,,0.03,Wunderground v.1.15,2013-01-28 15:39:00,
2013-01-28 08:44:00,43.3,29.5,29.72,South,177,8.0,11.0,58,0.00,,,0.03,Wunderground v.1.15,2013-01-28 15:44:00,
2013-01-28 08:49:00,43.3,29.9,29.72,South,177,3.0,9.0,59,0.00,,,0.03,Wunderground v.1.15,2013-01-28 15:49:00,
2013-01-28 08:54:00,43.2,29.8,29.72,South,177,10.0,15.0,59,0.00,,,0.03,Wunderground v.1.15,2013-01-28 15:54:00,
2013-01-28 08:59:00,43.1,30.1,29.72,South,177,4.0,13.0,60,0.00,,,0.03,Wunderground v.1.15,2013-01-28 15:59:00,
2013-01-28 09:04:00,43.1,29.3,29.73,South,177,4.0,13.0,58,0.00,,,0.03,Wunderground v.1.15,2013-01-28 16:04:00,
2013-01-28 09:09:00,43.1,28.9,29.73,South,177,10.0,12.0,57,0.00,,,0.03,Wunderground v.1.15,2013-01-28 16:09:00,
2013-01-28 09:14:00,43.2,29.0,29.74,South,177,4.0,12.0,57,0.00,,,0.03,Wunderground v.1.15,2013-01-28 16:14:00,
2013-01-28 09:19:00,43.3,29.1,29.74,South,177,4.0,12.0,57,0.00,,,0.03,Wunderground v.1.15,2013-01-28 16:19:00,
2013-01-28 09:24:00,43.5,28.8,29.75,South,177,4.0,12.0,56,0.00,,,0.03,Wunderground v.1.15,2013-01-28 16:24:00,
2013-01-28 09:30:00,43.8,29.1,29.75,South,177,3.0,7.0,56,0.00,,,0.03,Wunderground v.1.15,2013-01-28 16:30:00,
2013-01-28 09:34:00,43.8,27.8,29.75,South,177,2.0,8.0,53,0.00,,,0.03,Wunderground v.1.15,2013-01-28 16:34:00,
2013-01-28 09:39:00,44.1,28.5,29.75,South,177,1.0,4.0,54,0.00,,,0.03,Wunderground v.1.15,2013-01-28 16:39:00,
2013-01-28 09:44:00,44.4,31.4,29.75,South,177,2.0,5.0,60,0.00,,,0.03,Wunderground v.1.15,2013-01-28 16:44:00,
2013-01-28 09:49:00,44.0,31.8,29.74,South,177,3.0,6.0,62,0.00,,,0.03,Wunderground v.1.15,2013-01-28 16:49:00,
2013-01-28 09:54:00,44.1,29.8,29.74,South,177,6.0,6.0,57,0.00,,,0.03,Wunderground v.1.15,2013-01-28 16:54:00,
2013-01-28 10:00:00,44.6,28.0,29.74,South,177,2.0,13.0,52,0.00,,,0.03,Wunderground v.1.15,2013-01-28 17:00:00,
2013-01-28 10:05:00,45.0,29.3,29.74,South,177,1.0,13.0,54,0.00,,,0.03,Wunderground v.1.15,2013-01-28 17:05:00,
2013-01-28 10:10:00,45.5,28.4,29.75,South,177,0.0,3.0,51,0.00,,,0.03,Wunderground v.1.15,2013-01-28 17:10:00,
2013-01-28 10:15:00,46.0,28.4,29.74,South,177,2.0,4.0,50,0.00,,,0.03,Wunderground v.1.15,2013-01-28 17:15:00,
2013-01-28 10:20:00,46.1,30.4,29.74,South,177,1.0,5.0,54,0.00,,,0.03,Wunderground v.1.15,2013-01-28 17:20:00,
2013-01-28 10:25:00,46.2,29.5,29.75,South,177,2.0,7.0,52,0.00,,,0.03,Wunderground v.1.15,2013-01-28 17:25:00,
2013-01-28 10:30:00,46.3,28.7,29.75,South,177,0.0,3.0,50,0.00,,,0.03,Wunderground v.1.15,2013-01-28 17:30:00,
2013-01-28 10:35:00,46.6,27.4,29.75,South,177,0.0,3.0,47,0.00,,,0.03,Wunderground v.1.15,2013-01-28 17:35:00,
2013-01-28 10:40:00,46.9,29.7,29.76,South,177,4.0,4.0,51,0.00,,,0.03,Wunderground v.1.15,2013-01-28 17:40:00,
2013-01-28 10:45:00,46.8,29.1,29.77,South,177,3.0,7.0,50,0.00,,,0.03,Wunderground v.1.15,2013-01-28 17:45:00,
2013-01-28 10:50:00,46.4,29.7,29.77,South,177,4.0,6.0,52,0.00,,,0.03,Wunderground v.1.15,2013-01-28 17:50:00,
2013-01-28 10:55:00,46.3,23.3,29.77,South,177,3.0,6.0,40,0.00,,,0.03,Wunderground v.1.15,2013-01-28 17:55:00,
2013-01-28 11:00:00,46.7,24.8,29.77,South,177,5.0,7.0,42,0.00,,,0.03,Wunderground v.1.15,2013-01-28 18:00:00,
2013-01-28 11:05:00,46.9,24.4,29.77,South,177,5.0,8.0,41,0.00,,,0.03,Wunderground v.1.15,2013-01-28 18:05:00,
2013-01-28 11:10:00,46.9,25.0,29.77,South,177,6.0,10.0,42,0.00,,,0.03,Wunderground v.1.15,2013-01-28 18:10:00,
2013-01-28 11:15:00,47.0,26.2,29.77,South,177,4.0,13.0,44,0.00,,,0.03,Wunderground v.1.15,2013-01-28 18:15:00,
2013-01-28 11:20:00,47.1,27.4,29.77,South,177,6.0,10.0,46,0.00,,,0.03,Wunderground v.1.15,2013-01-28 18:20:00,
2013-01-28 11:25:00,47.0,24.5,29.77,South,177,7.0,10.0,41,0.00,,,0.03,Wunderground v.1.15,2013-01-28 18:25:00,
2013-01-28 11:30:00,46.9,22.6,29.77,South,177,6.0,11.0,38,0.00,,,0.03,Wunderground v.1.15,2013-01-28 18:30:00,
2013-01-28 11:35:00,46.8,24.3,29.77,South,177,7.0,13.0,41,0.00,,,0.03,Wunderground v.1.15,2013-01-28 18:35:00,
2013-01-28 11:40:00,47.0,24.5,29.77,South,177,8.0,10.0,41,0.00,,,0.03,Wunderground v.1.15,2013-01-28 18:40:00,
2013-01-28 11:45:00,47.1,26.3,29.77,South,177,6.0,10.0,44,0.00,,,0.03,Wunderground v.1.15,2013-01-28 18:45:00,
2013-01-28 11:50:00,47.3,25.9,29.76,South,177,5.0,11.0,43,0.00,,,0.03,Wunderground v.1.15,2013-01-28 18:50:00,
2013-01-28 11:55:00,47.3,25.9,29.77,South,177,2.0,11.0,43,0.00,,,0.03,Wunderground v.1.15,2013-01-28 18:55:00,
2013-01-28 12:00:00,47.3,25.9,29.76,South,177,5.0,10.0,43,0.00,,,0.03,Wunderground v.1.15,2013-01-28 19:00:00,
2013-01-28 12:05:00,47.3,25.3,29.76,South,177,6.0,11.0,42,0.00,,,0.03,Wunderground v.1.15,2013-01-28 19:05:00,
2013-01-28 12:10:00,47.5,26.1,29.76,South,177,1.0,5.0,43,0.00,,,0.03,Wunderground v.1.15,2013-01-28 19:10:00,
2013-01-28 12:15:00,47.7,26.8,29.76,South,177,3.0,5.0,44,0.00,,,0.03,Wunderground v.1.15,2013-01-28 19:15:00,
2013-01-28 12:20:00,47.9,25.3,29.76,South,177,2.0,6.0,41,0.00,,,0.03,Wunderground v.1.15,2013-01-28 19:20:00,
2013-01-28 12:25:00,48.3,25.7,29.76,South,177,3.0,6.0,41,0.00,,,0.03,Wunderground v.1.15,2013-01-28 19:25:00,
2013-01-28 12:30:00,48.6,25.9,29.76,South,177,3.0,11.0,41,0.00,,,0.03,Wunderground v.1.15,2013-01-28 19:30:00,
2013-01-28 12:35:00,48.8,25.5,29.76,South,177,4.0,11.0,40,0.00,,,0.03,Wunderground v.1.15,2013-01-28 19:35:00,
2013-01-28 12:40:00,48.3,24.5,29.76,South,177,3.0,6.0,39,0.00,,,0.03,Wunderground v.1.15,2013-01-28 19:40:00,
2013-01-28 12:45:00,47.5,24.9,29.76,South,177,2.0,8.0,41,0.00,,,0.03,Wunderground v.1.15,2013-01-28 19:45:00,
2013-01-28 12:50:00,47.6,25.6,29.76,South,177,2.0,11.0,42,0.00,,,0.03,Wunderground v.1.15,2013-01-28 19:50:00,
2013-01-28 12:55:00,48.5,27.6,29.76,South,177,4.0,11.0,44,0.00,,,0.03,Wunderground v.1.15,2013-01-28 19:55:00,
2013-01-28 13:00:00,48.9,26.2,29.76,South,177,2.0,6.0,41,0.00,,,0.03,Wunderground v.1.15,2013-01-28 20:00:00,
2013-01-28 13:05:00,48.5,24.6,29.75,South,177,3.0,8.0,39,0.00,,,0.03,Wunderground v.1.15,2013-01-28 20:05:00,
2013-01-28 13:10:00,48.5,23.4,29.75,South,177,2.0,7.0,37,0.00,,,0.03,Wunderground v.1.15,2013-01-28 20:10:00,
2013-01-28 13:15:00,48.7,23.6,29.75,South,177,1.0,7.0,37,0.00,,,0.03,Wunderground v.1.15,2013-01-28 20:15:00,
2013-01-28 13:20:00,49.2,23.4,29.75,South,177,3.0,4.0,36,0.00,,,0.03,Wunderground v.1.15,2013-01-28 20:20:00,
2013-01-28 13:25:00,49.6,25.6,29.75,South,177,1.0,13.0,39,0.00,,,0.03,Wunderground v.1.15,2013-01-28 20:25:00,
2013-01-28 13:30:00,49.4,24.8,29.75,South,177,7.0,7.0,38,0.00,,,0.03,Wunderground v.1.15,2013-01-28 20:30:00,
2013-01-28 13:35:00,49.0,24.5,29.75,South,177,3.0,8.0,38,0.00,,,0.03,Wunderground v.1.15,2013-01-28 20:35:00,
2013-01-28 13:40:00,48.8,26.1,29.75,South,177,6.0,9.0,41,0.00,,,0.03,Wunderground v.1.15,2013-01-28 20:40:00,
2013-01-28 13:45:00,48.5,24.0,29.75,South,177,7.0,12.0,38,0.00,,,0.03,Wunderground v.1.15,2013-01-28 20:45:00,
2013-01-28 13:50:00,48.3,24.5,29.75,South,177,2.0,7.0,39,0.00,,,0.03,Wunderground v.1.15,2013-01-28 20:50:00,
2013-01-28 13:55:00,48.3,24.5,29.75,South,177,3.0,8.0,39,0.00,,,0.03,Wunderground v.1.15,2013-01-28 20:55:00,
2013-01-28 14:00:00,48.5,24.6,29.75,South,177,7.0,7.0,39,0.00,,,0.03,Wunderground v.1.15,2013-01-28 21:00:00,
2013-01-28 14:05:00,48.7,22.9,29.75,South,177,2.0,8.0,36,0.00,,,0.03,Wunderground v.1.15,2013-01-28 21:05:00,
2013-01-28 14:10:00,48.4,24.6,29.75,South,177,1.0,3.0,39,0.00,,,0.03,Wunderground v.1.15,2013-01-28 21:10:00,
2013-01-28 14:15:00,48.0,23.6,29.75,South,177,0.0,4.0,38,0.00,,,0.03,Wunderground v.1.15,2013-01-28 21:15:00,
2013-01-28 14:20:00,47.6,23.8,29.75,South,177,1.0,1.0,39,0.00,,,0.03,Wunderground v.1.15,2013-01-28 21:20:00,
2013-01-28 14:25:00,47.5,23.7,29.75,South,177,3.0,3.0,39,0.00,,,0.03,Wunderground v.1.15,2013-01-28 21:25:00,
2013-01-28 14:30:00,47.2,23.5,29.75,South,177,0.0,4.0,39,0.00,,,0.03,Wunderground v.1.15,2013-01-28 21:30:00,
2013-01-28 14:35:00,47.5,26.6,29.75,South,177,2.0,5.0,44,0.00,,,0.03,Wunderground v.1.15,2013-01-28 21:35:00,
2013-01-28 14:40:00,48.1,24.9,29.75,South,177,1.0,4.0,40,0.00,,,0.03,Wunderground v.1.15,2013-01-28 21:40:00,
2013-01-28 14:45:00,48.2,25.0,29.75,South,177,5.0,7.0,40,0.00,,,0.03,Wunderground v.1.15,2013-01-28 21:45:00,
2013-01-28 14:50:00,48.1,26.6,29.75,South,177,7.0,7.0,43,0.00,,,0.03,Wunderground v.1.15,2013-01-28 21:50:00,
2013-01-28 14:55:00,47.5,25.5,29.75,South,177,2.0,8.0,42,0.00,,,0.03,Wunderground v.1.15,2013-01-28 21:55:00,
2013-01-28 15:00:00,47.4,25.4,29.76,South,177,4.0,8.0,42,0.00,,,0.03,Wunderground v.1.15,2013-01-28 22:00:00,
2013-01-28 15:06:00,47.1,24.6,29.76,South,177,3.0,8.0,41,0.00,,,0.03,Wunderground v.1.15,2013-01-28 22:06:00,
2013-01-28 15:11:00,47.0,23.9,29.76,South,177,2.0,8.0,40,0.00,,,0.03,Wunderground v.1.15,2013-01-28 22:11:00,
2013-01-28 15:16:00,45.8,32.3,29.76,South,177,5.0,11.0,59,0.00,,,0.03,Wunderground v.1.15,2013-01-28 22:16:00,
2013-01-28 15:21:00,44.7,32.9,29.76,South,177,12.0,12.0,63,0.00,,,0.03,Wunderground v.1.15,2013-01-28 22:21:00,
2013-01-28 15:26:00,43.8,32.8,29.77,South,177,9.0,14.0,65,0.00,,,0.03,Wunderground v.1.15,2013-01-28 22:26:00,
2013-01-28 15:31:00,42.9,32.7,29.77,South,179,7.0,12.0,67,0.00,,,0.03,Wunderground v.1.15,2013-01-28 22:31:00,
2013-01-28 15:36:00,42.4,32.9,29.77,South,177,6.0,12.0,69,0.00,,,0.03,Wunderground v.1.15,2013-01-28 22:36:00,
2013-01-28 15:41:00,41.9,32.1,29.77,South,179,9.0,15.0,68,0.00,,,0.03,Wunderground v.1.15,2013-01-28 22:41:00,
2013-01-28 15:46:00,41.4,31.6,29.77,South,179,5.0,15.0,68,0.00,,,0.03,Wunderground v.1.15,2013-01-28 22:46:00,
2013-01-28 15:51:00,40.9,30.8,29.77,South,179,7.0,16.0,67,0.00,,,0.03,Wunderground v.1.15,2013-01-28 22:51:00,
2013-01-28 15:56:00,40.6,31.2,29.77,South,179,6.0,16.0,69,0.00,,,0.03,Wunderground v.1.15,2013-01-28 22:56:00,
2013-01-28 16:01:00,40.4,31.7,29.77,South,179,11.0,15.0,71,0.00,,,0.03,Wunderground v.1.15,2013-01-28 23:01:00,
2013-01-28 16:06:00,39.8,31.8,29.78,South,179,7.0,7.0,73,0.00,,,0.03,Wunderground v.1.15,2013-01-28 23:06:00,
2013-01-28 16:11:00,39.7,31.4,29.78,South,179,11.0,12.0,72,0.00,,,0.03,Wunderground v.1.15,2013-01-28 23:11:00,
2013-01-28 16:16:00,39.5,31.2,29.79,South,179,11.0,14.0,72,0.00,,,0.03,Wunderground v.1.15,2013-01-28 23:16:00,
2013-01-28 16:21:00,39.2,31.6,29.79,South,179,5.0,12.0,74,0.00,,,0.03,Wunderground v.1.15,2013-01-28 23:21:00,
2013-01-28 16:26:00,39.0,31.1,29.79,South,179,5.0,7.0,73,0.00,,,0.03,Wunderground v.1.15,2013-01-28 23:26:00,
2013-01-28 16:31:00,39.0,30.7,29.80,South,179,7.0,15.0,72,0.00,,,0.03,Wunderground v.1.15,2013-01-28 23:31:00,
2013-01-28 16:36:00,38.9,30.6,29.80,South,180,5.0,8.0,72,0.00,,,0.03,Wunderground v.1.15,2013-01-28 23:36:00,
2013-01-28 16:41:00,38.7,30.8,29.80,South,179,7.0,9.0,73,0.00,,,0.03,Wunderground v.1.15,2013-01-28 23:41:00,
2013-01-28 16:46:00,38.7,31.1,29.80,South,179,2.0,5.0,74,0.00,,,0.03,Wunderground v.1.15,2013-01-28 23:46:00,
2013-01-28 16:51:00,38.7,30.8,29.80,South,179,5.0,11.0,73,0.00,,,0.03,Wunderground v.1.15,2013-01-28 23:51:00,
2013-01-28 16:56:00,38.7,31.1,29.80,South,181,3.0,4.0,74,0.00,,,0.03,Wunderground v.1.15,2013-01-28 23:56:00,
2013-01-28 17:01:00,38.3,31.4,29.80,South,179,4.0,8.0,76,0.00,,,0.03,Wunderground v.1.15,2013-01-29 00:01:00,
2013-01-28 17:06:00,38.0,31.4,29.80,South,179,7.0,7.0,77,0.00,,,0.03,Wunderground v.1.15,2013-01-29 00:06:00,
2013-01-28 17:11:00,37.6,32.3,29.81,South,179,7.0,8.0,81,0.00,,,0.03,Wunderground v.1.15,2013-01-29 00:11:00,
2013-01-28 17:16:00,37.0,32.3,29.80,South,179,2.0,5.0,83,0.00,,,0.03,Wunderground v.1.15,2013-01-29 00:16:00,
2013-01-28 17:22:00,36.7,32.3,29.81,South,179,8.0,8.0,84,0.00,,,0.03,Wunderground v.1.15,2013-01-29 00:22:00,
2013-01-28 17:27:00,36.2,32.4,29.81,South,179,3.0,7.0,86,0.00,,,0.03,Wunderground v.1.15,2013-01-29 00:27:00,
2013-01-28 17:32:00,35.8,32.0,29.81,South,179,3.0,9.0,86,0.00,,,0.03,Wunderground v.1.15,2013-01-29 00:32:00,
2013-01-28 17:37:00,35.8,32.3,29.81,South,179,4.0,6.0,87,0.00,,,0.03,Wunderground v.1.15,2013-01-29 00:37:00,
2013-01-28 17:42:00,35.9,31.8,29.81,South,179,5.0,11.0,85,0.00,,,0.03,Wunderground v.1.15,2013-01-29 00:42:00,
2013-01-28 17:46:00,35.9,31.2,29.81,South,179,11.0,12.0,83,0.00,,,0.03,Wunderground v.1.15,2013-01-29 00:46:00,
2013-01-28 17:52:00,35.7,31.0,29.82,South,179,3.0,12.0,83,0.00,,,0.03,Wunderground v.1.15,2013-01-29 00:52:00,
2013-01-28 17:57:00,35.3,30.9,29.82,South,179,5.0,6.0,84,0.00,,,0.03,Wunderground v.1.15,2013-01-29 00:57:00,
2013-01-28 18:02:00,34.9,30.8,29.82,South,179,4.0,13.0,85,0.00,,,0.03,Wunderground v.1.15,2013-01-29 01:02:00,
2013-01-28 18:07:00,34.7,31.2,29.82,South,179,3.0,9.0,87,0.00,,,0.03,Wunderground v.1.15,2013-01-29 01:07:00,
2013-01-28 18:12:00,34.6,31.1,29.82,South,179,4.0,11.0,87,0.00,,,0.03,Wunderground v.1.15,2013-01-29 01:12:00,
2013-01-28 18:17:00,34.7,31.2,29.82,South,179,4.0,5.0,87,0.00,,,0.03,Wunderground v.1.15,2013-01-29 01:17:00,
2013-01-28 18:22:00,34.8,31.3,29.82,South,180,2.0,5.0,87,0.00,,,0.03,Wunderground v.1.15,2013-01-29 01:22:00,
2013-01-28 18:27:00,35.1,31.3,29.82,South,179,2.0,3.0,86,0.00,,,0.03,Wunderground v.1.15,2013-01-29 01:27:00,
2013-01-28 18:32:00,35.5,30.5,29.82,South,180,2.0,6.0,82,0.00,,,0.03,Wunderground v.1.15,2013-01-29 01:32:00,
2013-01-28 18:37:00,35.7,29.8,29.82,South,179,3.0,6.0,79,0.00,,,0.03,Wunderground v.1.15,2013-01-29 01:37:00,
2013-01-28 18:42:00,35.6,29.7,29.82,South,180,6.0,10.0,79,0.00,,,0.03,Wunderground v.1.15,2013-01-29 01:42:00,
2013-01-28 18:47:00,35.6,29.4,29.83,South,179,8.0,12.0,78,0.00,,,0.03,Wunderground v.1.15,2013-01-29 01:47:00,
2013-01-28 18:52:00,35.7,29.2,29.82,South,179,9.0,12.0,77,0.00,,,0.03,Wunderground v.1.15,2013-01-29 01:52:00,
2013-01-28 18:57:00,35.9,28.4,29.83,South,179,4.0,7.0,74,0.00,,,0.03,Wunderground v.1.15,2013-01-29 01:57:00,
2013-01-28 19:02:00,36.3,28.8,29.83,South,179,2.0,7.0,74,0.00,,,0.03,Wunderground v.1.15,2013-01-29 02:02:00,
2013-01-28 19:07:00,36.5,28.3,29.83,South,179,3.0,4.0,72,0.00,,,0.03,Wunderground v.1.15,2013-01-29 02:07:00,
2013-01-28 19:12:00,36.7,27.8,29.83,South,179,1.0,4.0,70,0.00,,,0.03,Wunderground v.1.15,2013-01-29 02:12:00,
2013-01-28 19:17:00,36.8,27.9,29.84,South,179,1.0,1.0,70,0.00,,,0.03,Wunderground v.1.15,2013-01-29 02:17:00,
2013-01-28 19:22:00,36.8,29.0,29.84,South,179,0.0,1.0,73,0.00,,,0.03,Wunderground v.1.15,2013-01-29 02:22:00,
2013-01-28 19:27:00,36.6,29.7,29.84,South,180,0.0,0.0,76,0.00,,,0.03,Wunderground v.1.15,2013-01-29 02:27:00,
2013-01-28 19:32:00,36.5,29.7,29.85,South,179,1.0,1.0,76,0.00,,,0.03,Wunderground v.1.15,2013-01-29 02:32:00,
2013-01-28 19:37:00,36.4,28.2,29.85,South,179,0.0,1.0,72,0.00,,,0.03,Wunderground v.1.15,2013-01-29 02:37:00,
2013-01-28 19:42:00,36.5,28.3,29.84,South,179,0.0,1.0,72,0.00,,,0.03,Wunderground v.1.15,2013-01-29 02:42:00,
2013-01-28 19:47:00,36.4,28.6,29.84,South,179,0.0,1.0,73,0.00,,,0.03,Wunderground v.1.15,2013-01-29 02:47:00,
2013-01-28 19:52:00,36.5,27.6,29.84,South,179,0.0,3.0,70,0.00,,,0.03,Wunderground v.1.15,2013-01-29 02:52:00,
2013-01-28 19:57:00,36.6,27.4,29.84,South,179,0.0,1.0,69,0.00,,,0.03,Wunderground v.1.15,2013-01-29 02:57:00,
2013-01-28 20:02:00,36.7,27.8,29.84,South,179,0.0,1.0,70,0.00,,,0.03,Wunderground v.1.15,2013-01-29 03:02:00,
2013-01-28 20:07:00,36.7,29.2,29.84,South,179,0.0,1.0,74,0.00,,,0.03,Wunderground v.1.15,2013-01-29 03:07:00,
2013-01-28 20:13:00,36.5,29.3,29.84,South,179,1.0,2.0,75,0.00,,,0.03,Wunderground v.1.15,2013-01-29 03:13:00,
2013-01-28 20:18:00,36.4,29.6,29.84,South,180,0.0,1.0,76,0.00,,,0.03,Wunderground v.1.15,2013-01-29 03:18:00,
2013-01-28 20:23:00,36.1,30.2,29.85,South,179,2.0,3.0,79,0.00,,,0.03,Wunderground v.1.15,2013-01-29 03:23:00,
2013-01-28 20:28:00,35.7,30.4,29.85,South,179,2.0,2.0,81,0.00,,,0.03,Wunderground v.1.15,2013-01-29 03:28:00,
2013-01-28 20:33:00,35.5,30.5,29.85,South,179,0.0,3.0,82,0.00,,,0.03,Wunderground v.1.15,2013-01-29 03:33:00,
2013-01-28 20:38:00,35.3,30.4,29.85,South,179,0.0,1.0,82,0.00,,,0.03,Wunderground v.1.15,2013-01-29 03:38:00,
2013-01-28 20:43:00,35.2,30.6,29.86,South,179,0.0,2.0,83,0.00,,,0.03,Wunderground v.1.15,2013-01-29 03:43:00,
2013-01-28 20:48:00,35.1,30.5,29.86,South,179,0.0,2.0,83,0.00,,,0.03,Wunderground v.1.15,2013-01-29 03:48:00,
2013-01-28 20:53:00,35.0,30.7,29.86,South,180,0.0,2.0,84,0.00,,,0.03,Wunderground v.1.15,2013-01-29 03:53:00,
2013-01-28 20:58:00,34.9,30.8,29.86,South,179,1.0,1.0,85,0.00,,,0.03,Wunderground v.1.15,2013-01-29 03:58:00,
2013-01-28 21:03:00,34.8,30.8,29.86,South,179,0.0,1.0,85,0.00,,,0.03,Wunderground v.1.15,2013-01-29 04:03:00,
2013-01-28 21:08:00,34.6,30.6,29.86,South,179,0.0,0.0,85,0.00,,,0.03,Wunderground v.1.15,2013-01-29 04:08:00,
2013-01-28 21:13:00,34.4,30.6,29.86,South,179,0.0,0.0,86,0.00,,,0.03,Wunderground v.1.15,2013-01-29 04:13:00,
2013-01-28 21:18:00,34.3,30.5,29.87,South,181,0.0,0.0,86,0.00,,,0.03,Wunderground v.1.15,2013-01-29 04:18:00,
2013-01-28 21:23:00,34.2,30.7,29.87,South,179,0.0,0.0,87,0.00,,,0.03,Wunderground v.1.15,2013-01-29 04:23:00,
2013-01-28 21:28:00,34.2,31.0,29.87,South,181,0.0,0.0,88,0.00,,,0.03,Wunderground v.1.15,2013-01-29 04:28:00,
2013-01-28 21:33:00,34.2,31.0,29.87,South,179,0.0,0.0,88,0.00,,,0.03,Wunderground v.1.15,2013-01-29 04:33:00,
2013-01-28 21:38:00,34.3,31.4,29.87,South,180,0.0,0.0,89,0.00,,,0.03,Wunderground v.1.15,2013-01-29 04:38:00,
2013-01-28 21:43:00,34.3,31.4,29.88,South,179,0.0,1.0,89,0.00,,,0.03,Wunderground v.1.15,2013-01-29 04:43:00,
2013-01-28 21:49:00,34.3,31.4,29.88,South,181,0.0,1.0,89,0.00,,,0.03,Wunderground v.1.15,2013-01-29 04:49:00,
2013-01-28 21:54:00,34.4,31.8,29.88,South,179,0.0,1.0,90,0.00,,,0.03,Wunderground v.1.15,2013-01-29 04:54:00,
2013-01-28 21:59:00,34.3,31.4,29.88,South,179,0.0,0.0,89,0.00,,,0.03,Wunderground v.1.15,2013-01-29 04:59:00,
2013-01-28 22:00:00,34.4,31.5,29.88,South,179,0.0,0.0,89,0.00,,,0.03,Wunderground v.1.15,2013-01-29 05:00:00,
2013-01-28 22:02:00,34.3,31.4,29.88,South,179,0.0,0.0,89,0.00,,,0.03,Wunderground v.1.15,2013-01-29 05:02:00,
2013-01-28 22:03:00,34.3,31.4,29.88,South,179,0.0,0.0,89,0.00,,,0.03,Wunderground v.1.15,2013-01-29 05:03:00,
2013-01-28 22:08:00,34.3,31.7,29.88,South,179,0.0,0.0,90,0.00,,,0.03,Wunderground v.1.15,2013-01-29 05:08:00,
2013-01-28 22:13:00,34.2,31.6,29.88,South,179,0.0,0.0,90,0.00,,,0.03,Wunderground v.1.15,2013-01-29 05:13:00,
2013-01-28 22:18:00,34.0,31.4,29.88,South,179,0.0,0.0,90,0.00,,,0.03,Wunderground v.1.15,2013-01-29 05:18:00,
2013-01-28 22:23:00,33.8,31.2,29.88,South,179,0.0,0.0,90,0.00,,,0.03,Wunderground v.1.15,2013-01-29 05:23:00,
2013-01-28 22:28:00,33.7,31.4,29.88,South,179,0.0,0.0,91,0.00,,,0.03,Wunderground v.1.15,2013-01-29 05:28:00,
2013-01-28 22:33:00,33.7,31.4,29.88,South,179,0.0,0.0,91,0.00,,,0.03,Wunderground v.1.15,2013-01-29 05:33:00,
2013-01-28 22:38:00,33.6,31.3,29.88,South,179,0.0,1.0,91,0.00,,,0.03,Wunderground v.1.15,2013-01-29 05:38:00,
2013-01-28 22:43:00,33.6,30.4,29.88,South,179,2.0,5.0,88,0.00,,,0.03,Wunderground v.1.15,2013-01-29 05:43:00,
2013-01-28 22:48:00,34.2,28.7,29.88,South,179,3.0,4.0,80,0.00,,,0.03,Wunderground v.1.15,2013-01-29 05:48:00,
2013-01-28 22:53:00,34.9,27.8,29.88,South,179,1.0,5.0,75,0.00,,,0.03,Wunderground v.1.15,2013-01-29 05:53:00,
2013-01-28 22:58:00,35.1,27.0,29.88,South,179,3.0,8.0,72,0.00,,,0.03,Wunderground v.1.15,2013-01-29 05:58:00,
2013-01-28 23:03:00,35.4,26.9,29.88,South,179,2.0,9.0,71,0.00,,,0.03,Wunderground v.1.15,2013-01-29 06:03:00,
2013-01-28 23:08:00,35.2,29.6,29.89,South,180,0.0,3.0,80,0.00,,,0.03,Wunderground v.1.15,2013-01-29 06:08:00,
2013-01-28 23:13:00,34.5,30.2,29.89,South,179,0.0,3.0,84,0.00,,,0.03,Wunderground v.1.15,2013-01-29 06:13:00,
2013-01-28 23:18:00,33.9,29.6,29.89,South,179,0.0,1.0,84,0.00,,,0.03,Wunderground v.1.15,2013-01-29 06:18:00,
2013-01-28 23:23:00,33.8,26.7,29.89,South,180,3.0,4.0,75,0.00,,,0.03,Wunderground v.1.15,2013-01-29 06:23:00,
2013-01-28 23:28:00,34.3,25.5,29.89,South,179,2.0,6.0,70,0.00,,,0.03,Wunderground v.1.15,2013-01-29 06:28:00,
2013-01-28 23:33:00,34.5,25.7,29.88,South,179,2.0,6.0,70,0.00,,,0.03,Wunderground v.1.15,2013-01-29 06:33:00,
2013-01-28 23:38:00,34.4,25.6,29.89,South,179,4.0,4.0,70,0.00,,,0.03,Wunderground v.1.15,2013-01-29 06:38:00,
2013-01-28 23:43:00,34.4,25.6,29.88,South,181,3.0,5.0,70,0.00,,,0.03,Wunderground v.1.15,2013-01-29 06:43:00,
2013-01-28 23:48:00,34.4,25.3,29.89,South,181,1.0,3.0,69,0.00,,,0.03,Wunderground v.1.15,2013-01-29 06:48:00,
2013-01-28 23:53:00,34.1,25.3,29.88,South,179,1.0,3.0,70,0.00,,,0.03,Wunderground v.1.15,2013-01-29 06:53:00,
2013-01-28 23:58:00,34.1,25.0,29.88,South,180,2.0,2.0,69,0.00,,,0.03,Wunderground v.1.15,2013-01-29 06:58:00,